Time;durP1;ratioP1;P1;durP2;ratioP2;P2;SDS_P1;SDS_P2;PMS_P1;PMS_P2;Temp;Humidity;BMP_temperature;BMP_pressure;BME280_temperature;BME280_humidity;BME280_pressure;Samples;Min_cycle;Max_cycle;Signal;HPM_P1;HPM_P2
2022/05/24 00:01:44;;;;;;;10.38;3.70;;;;;;;22.87;100.00;97878.66;4889346;29;20060;-67
2022/05/24 00:04:33;;;;;;;11.05;3.65;;;;;;;22.83;100.00;97858.88;4889367;29;20548;-65
2022/05/24 00:07:22;;;;;;;10.15;4.32;;;;;;;22.80;100.00;97832.91;4889154;29;20053;-65
2022/05/24 00:10:13;;;;;;;12.68;4.13;;;;;;;22.86;100.00;97830.53;4889380;29;20048;-66
2022/05/24 00:12:55;;;;;;;10.15;3.85;;;;;;;22.74;100.00;97817.75;4872399;29;20048;-66
2022/05/24 00:15:45;;;;;;;14.35;3.53;;;;;;;22.82;100.00;97828.34;4857418;29;20044;-66
2022/05/24 00:18:29;;;;;;;11.10;3.63;;;;;;;22.92;100.00;97834.38;4891982;29;20060;-67
2022/05/24 00:21:20;;;;;;;11.05;3.95;;;;;;;22.96;100.00;97846.28;4907637;29;20380;-65
2022/05/24 00:24:03;;;;;;;12.23;3.95;;;;;;;23.00;100.00;97842.38;4908788;29;20076;-65
2022/05/24 00:26:53;;;;;;;13.90;4.28;;;;;;;23.07;100.00;97848.69;4888638;29;20139;-66
2022/05/24 00:29:42;;;;;;;10.32;4.20;;;;;;;23.14;100.00;97851.59;4889237;29;20045;-66
2022/05/24 00:32:31;;;;;;;15.32;3.83;;;;;;;23.10;100.00;97850.22;4888931;29;20049;-66
2022/05/24 00:35:15;;;;;;;8.13;3.90;;;;;;;23.14;100.00;97856.84;4890332;29;20155;-66
2022/05/24 00:38:04;;;;;;;12.93;3.80;;;;;;;23.09;100.00;97864.31;4872197;29;20048;-65
2022/05/24 00:40:46;;;;;;;18.77;4.40;;;;;;;23.12;100.00;97880.66;4875554;29;20049;-67
2022/05/24 00:44:04;;;;;;;17.05;4.85;;;;;;;23.06;100.00;97894.38;4869964;29;20053;-67
2022/05/24 00:46:56;;;;;;;10.75;4.75;;;;;;;22.86;100.00;97890.13;4865213;29;20053;-67
2022/05/24 00:49:50;;;;;;;14.35;4.63;;;;;;;22.86;100.00;97896.22;4878160;29;20053;-66
2022/05/24 00:52:53;;;;;;;11.30;3.95;;;;;;;22.84;100.00;97889.44;4866393;29;20076;-66
2022/05/24 00:55:54;;;;;;;16.27;5.38;;;;;;;22.81;100.00;97900.25;4874026;29;20049;-67
2022/05/24 00:59:00;;;;;;;19.33;5.90;;;;;;;22.81;100.00;97900.25;4877300;29;20112;-66
2022/05/24 01:01:51;;;;;;;14.55;5.43;;;;;;;22.75;100.00;97898.16;4870997;29;20053;-65
2022/05/24 01:04:27;;;;;;;15.15;6.28;;;;;;;22.92;100.00;97902.69;4872857;29;20059;-66
2022/05/24 01:07:22;;;;;;;17.63;7.45;;;;;;;22.89;100.00;97903.00;4872391;29;20145;-66
2022/05/24 01:10:02;;;;;;;20.88;6.53;;;;;;;22.90;100.00;97894.13;4876526;29;20532;-66
2022/05/24 01:13:14;;;;;;;19.25;5.90;;;;;;;22.98;100.00;97889.00;4864743;29;20137;-66
2022/05/24 01:15:51;;;;;;;15.75;6.40;;;;;;;22.97;100.00;97889.13;4873186;29;20057;-65
2022/05/24 01:18:42;;;;;;;18.60;6.32;;;;;;;22.79;100.00;97884.63;4875722;29;20067;-67
2022/05/24 01:21:25;;;;;;;14.82;6.55;;;;;;;22.80;100.00;97882.81;4880016;29;20041;-67
2022/05/24 01:24:36;;;;;;;18.80;6.70;;;;;;;22.81;100.00;97887.94;4871177;29;20041;-67
2022/05/24 01:27:19;;;;;;;15.20;6.03;;;;;;;22.88;100.00;97886.41;4871932;29;20096;-68
2022/05/24 01:30:10;;;;;;;15.20;6.72;;;;;;;23.00;100.00;97889.66;4872342;29;20053;-67
2022/05/24 01:36:11;;;;;;;30.60;14.98;;;;;;;22.84;100.00;97889.44;4877992;29;20053;-68
2022/05/24 01:39:11;;;;;;;25.70;12.75;;;;;;;22.94;100.00;97885.00;4894705;29;20074;-67
2022/05/24 01:42:00;;;;;;;24.92;12.50;;;;;;;22.95;100.00;97886.66;4891876;29;20061;-67
2022/05/24 01:44:49;;;;;;;22.77;12.35;;;;;;;22.99;100.00;97895.09;4893517;29;20052;-66
2022/05/24 01:47:43;;;;;;;34.15;15.57;;;;;;;23.24;100.00;97902.31;4891829;29;20128;-67
2022/05/24 01:50:29;;;;;;;25.77;12.93;;;;;;;23.53;100.00;97918.00;4891718;29;20163;-67
2022/05/24 01:53:27;;;;;;;23.65;13.73;;;;;;;23.58;100.00;97923.63;4890052;29;20247;-69
2022/05/24 01:56:59;;;;;;;24.25;14.07;;;;;;;23.59;100.00;97939.28;4888608;29;20048;-67
2022/05/24 01:59:52;;;;;;;17.58;11.07;;;;;;;24.33;100.00;97933.88;4889796;29;20049;-67
2022/05/24 02:02:49;;;;;;;15.95;8.68;;;;;;;24.94;100.00;97937.50;4890279;29;20045;-68
2022/05/24 02:05:41;;;;;;;19.02;7.78;;;;;;;24.24;100.00;97940.03;4889863;29;20063;-68
2022/05/24 02:08:23;;;;;;;17.45;7.30;;;;;;;25.12;97.61;97954.94;4890502;29;20057;-66
2022/05/24 02:11:23;;;;;;;18.75;7.45;;;;;;;25.50;93.78;97966.00;4893106;29;20049;-67
2022/05/24 02:14:18;;;;;;;13.95;7.40;;;;;;;26.21;88.68;97971.75;4886345;29;20154;-67
2022/05/24 02:17:07;;;;;;;12.07;6.50;;;;;;;26.46;84.71;97974.47;4890664;29;20111;-67
2022/05/24 02:20:00;;;;;;;19.40;6.70;;;;;;;25.89;84.63;97969.00;4884798;29;20120;-69
2022/05/24 02:22:44;;;;;;;21.60;5.72;;;;;;;26.29;84.66;97971.78;4889813;29;20182;-67
2022/05/24 02:25:42;;;;;;;11.23;5.47;;;;;;;25.57;86.29;97976.75;4890590;29;20041;-66
2022/05/24 02:28:33;;;;;;;9.82;4.82;;;;;;;26.82;83.07;97981.09;4889740;29;20044;-66
2022/05/24 02:31:26;;;;;;;10.43;3.90;;;;;;;26.52;79.16;97989.66;4876745;29;20155;-68
2022/05/24 02:34:09;;;;;;;11.75;4.25;;;;;;;26.76;77.18;97996.78;4883220;29;20480;-67
2022/05/24 02:37:04;;;;;;;6.72;3.65;;;;;;;27.70;72.25;97991.75;4882058;29;20048;-67
2022/05/24 02:42:53;;;;;;;10.05;4.30;;;;;;;27.42;70.08;98008.00;4885846;29;20049;-67
2022/05/24 02:45:48;;;;;;;15.40;5.70;;;;;;;28.12;71.25;98023.19;4887694;29;20131;-66
2022/05/24 02:48:23;;;;;;;13.65;6.85;;;;;;;28.52;69.26;98036.25;4888252;29;20049;-66
2022/05/24 02:51:15;;;;;;;15.80;7.70;;;;;;;27.88;73.51;98025.94;4888255;29;20140;-67
2022/05/24 02:53:57;;;;;;;15.98;6.45;;;;;;;28.21;68.04;98031.94;4889796;29;20056;-67
2022/05/24 02:56:47;;;;;;;10.30;4.63;;;;;;;27.30;70.90;98021.75;4889999;29;20428;-67
2022/05/24 02:59:36;;;;;;;9.10;4.88;;;;;;;27.59;68.74;98019.41;4887595;29;20061;-67
2022/05/24 03:02:23;;;;;;;10.02;4.35;;;;;;;27.64;70.02;98010.97;4886055;29;20425;-67
2022/05/24 03:05:13;;;;;;;8.70;3.90;;;;;;;27.83;68.69;98021.16;4889162;29;20144;-66
2022/05/24 03:11:03;;;;;;;14.90;4.65;;;;;;;27.61;69.02;98020.09;4889295;29;20056;-66
2022/05/24 03:16:56;;;;;;;14.73;5.53;;;;;;;26.46;73.31;98022.84;4889560;29;20128;-66
2022/05/24 03:19:39;;;;;;;10.15;5.53;;;;;;;27.29;71.34;98018.28;4889248;29;20056;-66
2022/05/24 03:22:28;;;;;;;11.25;4.65;;;;;;;27.60;68.89;98018.44;4882404;29;20060;-66
2022/05/24 03:25:13;;;;;;;11.18;4.90;;;;;;;26.78;72.61;98019.44;4886707;29;20053;-67
2022/05/24 03:28:05;;;;;;;9.30;3.95;;;;;;;27.71;68.61;98031.28;4893625;29;20048;-66
2022/05/24 03:30:47;;;;;;;9.07;3.90;;;;;;;27.78;67.63;98042.84;4895974;29;20048;-66
2022/05/24 03:33:38;;;;;;;11.43;4.78;;;;;;;27.11;69.70;98037.97;4892899;29;20267;-66
2022/05/24 03:36:35;;;;;;;10.35;4.32;;;;;;;27.37;69.46;98043.91;4889644;29;20116;-67
2022/05/24 03:39:24;;;;;;;7.72;3.88;;;;;;;28.35;71.14;98044.47;4889603;29;20064;-66
2022/05/24 03:42:06;;;;;;;8.27;4.22;;;;;;;27.86;67.86;98034.03;4888127;29;20067;-67
2022/05/24 03:44:56;;;;;;;8.13;3.67;;;;;;;28.17;68.60;98045.56;4889259;29;20044;-65
2022/05/24 03:47:46;;;;;;;9.13;4.50;;;;;;;28.44;66.47;98051.38;4889215;29;20062;-68
2022/05/24 03:50:28;;;;;;;13.82;4.50;;;;;;;28.93;67.70;98052.75;4882255;29;20071;-66
2022/05/24 03:53:17;;;;;;;14.35;5.25;;;;;;;28.32;65.94;98058.91;4887034;29;20726;-66
2022/05/24 03:55:59;;;;;;;9.23;4.10;;;;;;;28.11;65.69;98062.09;4886223;29;20735;-67
2022/05/24 03:58:48;;;;;;;11.13;5.15;;;;;;;27.96;67.40;98062.97;4852649;29;20063;-66
2022/05/24 04:01:30;;;;;;;9.52;4.35;;;;;;;28.28;67.00;98065.53;4882284;29;20091;-66
2022/05/24 04:04:19;;;;;;;12.93;4.53;;;;;;;28.02;68.87;98064.94;4880399;29;20585;-65
2022/05/24 04:07:01;;;;;;;8.93;4.03;;;;;;;28.64;65.77;98070.31;4868495;29;20056;-67
2022/05/24 04:09:50;;;;;;;8.70;4.18;;;;;;;29.13;63.98;98074.31;4885254;29;20045;-66
2022/05/24 04:12:32;;;;;;;8.07;3.78;;;;;;;27.54;67.44;98069.38;4887837;29;20052;-65
2022/05/24 04:15:21;;;;;;;9.50;3.58;;;;;;;28.29;66.49;98083.09;4888744;29;20052;-66
2022/05/24 04:18:03;;;;;;;10.40;4.22;;;;;;;28.21;67.25;98069.88;4887436;29;20057;-66
2022/05/24 04:20:52;;;;;;;7.97;3.60;;;;;;;28.49;69.21;98071.06;4886772;29;20052;-65
2022/05/24 04:23:41;;;;;;;8.25;3.67;;;;;;;28.85;64.79;98083.81;4890999;29;20044;-65
2022/05/24 04:26:31;;;;;;;8.43;3.75;;;;;;;28.83;62.08;98083.16;4892061;29;20075;-65
2022/05/24 04:29:13;;;;;;;9.85;3.75;;;;;;;28.72;64.99;98086.19;4891641;29;20048;-67
2022/05/24 04:32:02;;;;;;;9.63;4.00;;;;;;;29.37;63.39;98083.94;4892857;29;20051;-65
2022/05/24 04:34:44;;;;;;;6.78;3.60;;;;;;;29.06;61.98;98076.00;4891756;29;20177;-65
2022/05/24 04:37:40;;;;;;;14.93;4.35;;;;;;;28.97;60.24;98089.53;4871791;29;20144;-66
2022/05/24 04:40:18;;;;;;;12.00;3.47;;;;;;;29.17;61.10;98078.25;4873694;29;20053;-68
2022/05/24 04:43:15;;;;;;;12.52;3.75;;;;;;;29.20;63.79;98077.91;4887540;29;20125;-63
2022/05/24 04:45:53;;;;;;;13.85;3.97;;;;;;;29.57;61.46;98076.28;4872547;29;20437;-62
2022/05/24 04:48:43;;;;;;;11.80;3.95;;;;;;;29.54;59.99;98076.63;4872742;29;20059;-63
2022/05/24 04:51:25;;;;;;;10.55;3.58;;;;;;;29.12;64.33;98070.00;4868943;29;20049;-63
2022/05/24 04:54:14;;;;;;;10.93;3.35;;;;;;;28.92;61.82;98076.78;4868753;29;20100;-64
2022/05/24 04:56:56;;;;;;;16.23;3.33;;;;;;;29.59;61.98;98082.22;4864173;29;20553;-63
2022/05/24 04:59:45;;;;;;;9.73;2.83;;;;;;;29.53;59.08;98082.97;4865837;29;20597;-63
2022/05/24 05:02:34;;;;;;;7.80;2.95;;;;;;;29.72;57.73;98089.56;4868790;29;20059;-62
2022/05/24 05:05:16;;;;;;;7.95;3.08;;;;;;;30.17;61.53;98101.91;4870690;29;20056;-62
2022/05/24 05:08:05;;;;;;;10.77;3.40;;;;;;;30.15;55.35;98103.91;4871619;29;20746;-63
2022/05/24 05:10:48;;;;;;;10.23;3.35;;;;;;;29.71;57.84;98095.88;4872379;29;20045;-62
2022/05/24 05:13:38;;;;;;;8.40;3.55;;;;;;;29.86;58.16;98094.06;4871709;29;20059;-63
2022/05/24 05:16:20;;;;;;;11.88;3.30;;;;;;;29.83;59.34;98095.25;4861886;29;20117;-64
2022/05/24 05:19:10;;;;;;;13.10;4.53;;;;;;;29.40;59.80;98096.00;4871191;29;20445;-65
2022/05/24 05:21:52;;;;;;;9.63;3.10;;;;;;;29.53;62.48;98097.03;4871272;29;20498;-64
2022/05/24 05:24:42;;;;;;;9.05;3.83;;;;;;;30.30;67.57;98091.44;4869739;29;20056;-66
2022/05/24 05:27:25;;;;;;;13.80;4.55;;;;;;;29.25;61.55;98088.81;4871585;29;20160;-66
2022/05/24 05:33:17;;;;;;;10.25;2.75;;;;;;;30.10;53.72;98096.47;4868274;29;20140;-66
2022/05/24 05:36:13;;;;;;;17.13;3.28;;;;;;;30.74;56.72;98094.00;4868757;29;20081;-67
2022/05/24 05:39:09;;;;;;;12.30;4.57;;;;;;;30.15;59.05;98111.88;4882074;29;20036;-67
2022/05/24 05:42:04;;;;;;;12.82;4.25;;;;;;;30.49;61.00;98101.47;4889916;29;20064;-67
2022/05/24 05:44:40;;;;;;;11.32;3.42;;;;;;;30.10;57.11;98101.78;4889714;29;20473;-68
2022/05/24 05:47:36;;;;;;;24.27;5.90;;;;;;;30.20;65.04;98089.06;4884576;29;20112;-67
2022/05/24 05:50:12;;;;;;;15.02;4.20;;;;;;;30.64;56.42;98099.66;4886928;29;20048;-67
2022/05/24 05:53:08;;;;;;;10.57;4.10;;;;;;;30.02;58.73;98099.22;4888132;29;20059;-66
2022/05/24 05:55:43;;;;;;;9.40;3.22;;;;;;;29.77;59.13;98100.50;4888806;29;20425;-67
2022/05/24 05:58:39;;;;;;;9.73;2.50;;;;;;;30.42;57.47;98100.56;4890181;29;20124;-66
2022/05/24 06:01:20;;;;;;;10.68;2.65;;;;;;;30.25;54.35;98101.81;4890454;29;20414;-66
2022/05/24 06:04:16;;;;;;;14.23;3.47;;;;;;;29.83;56.88;98094.44;4891937;29;20053;-66
2022/05/24 06:06:53;;;;;;;9.20;2.72;;;;;;;30.36;55.16;98093.34;4893737;29;20134;-64
2022/05/24 06:09:48;;;;;;;11.52;2.70;;;;;;;30.30;56.45;98094.09;4903334;29;20049;-64
2022/05/24 06:12:23;;;;;;;9.63;2.58;;;;;;;29.75;56.42;98098.00;4892527;29;20084;-61
2022/05/24 06:15:12;;;;;;;11.32;3.15;;;;;;;29.46;58.57;98096.09;4891919;29;20530;-62
2022/05/24 06:18:01;;;;;;;15.25;3.58;;;;;;;29.67;57.78;98101.56;4892166;29;20053;-63
2022/05/24 06:20:43;;;;;;;21.63;3.70;;;;;;;29.17;59.50;98093.34;4887271;29;20060;-62
2022/05/24 06:23:35;;;;;;;17.35;3.67;;;;;;;29.51;57.22;98098.25;4891122;29;20052;-62
2022/05/24 06:26:20;;;;;;;12.45;3.42;;;;;;;29.11;58.84;98084.28;4883987;29;20064;-61
2022/05/24 06:29:11;;;;;;;11.60;3.70;;;;;;;29.85;58.09;98082.59;4887122;29;20108;-63
2022/05/24 06:31:56;;;;;;;9.10;3.70;;;;;;;29.66;61.08;98088.47;4882856;29;20041;-62
2022/05/24 06:34:48;;;;;;;11.95;3.00;;;;;;;29.66;60.53;98085.81;4887320;29;20049;-61
2022/05/24 06:37:31;;;;;;;11.98;3.50;;;;;;;29.90;56.55;98090.03;4885298;29;20059;-61
2022/05/24 06:40:27;;;;;;;9.82;3.40;;;;;;;30.16;57.11;98079.81;4879655;29;20073;-61
2022/05/24 06:43:17;;;;;;;11.65;4.28;;;;;;;29.81;59.13;98084.00;4887388;29;20056;-62
2022/05/24 06:46:10;;;;;;;7.68;3.13;;;;;;;29.67;58.67;98076.84;4887465;29;20388;-63
2022/05/24 06:48:52;;;;;;;14.07;3.20;;;;;;;29.58;57.07;98069.97;4892783;29;20104;-61
2022/05/24 06:51:41;;;;;;;12.10;3.20;;;;;;;30.36;59.39;98075.56;4890301;29;20120;-61
2022/05/24 06:54:23;;;;;;;8.23;2.90;;;;;;;29.17;59.05;98069.47;4891220;29;20052;-61
2022/05/24 06:57:12;;;;;;;10.80;3.72;;;;;;;29.66;57.35;98056.59;4874647;29;20037;-61
2022/05/24 07:03:21;;;;;;;9.35;3.03;;;;;;;30.10;61.36;98059.28;4887786;29;20059;-61
2022/05/24 07:06:03;;;;;;;11.65;3.78;;;;;;;29.03;60.06;98059.63;4890707;29;20044;-62
2022/05/24 07:08:55;;;;;;;9.85;5.10;;;;;;;29.13;61.62;98050.44;4873064;29;20120;-62
2022/05/24 07:11:37;;;;;;;13.95;5.60;;;;;;;29.36;65.25;98052.25;4889838;29;20140;-62
2022/05/24 07:14:27;;;;;;;22.08;8.35;;;;;;;29.25;60.59;98040.22;4889992;29;20056;-61
2022/05/24 07:17:09;;;;;;;16.10;4.53;;;;;;;29.80;62.35;98041.66;4882285;29;20105;-62
2022/05/24 07:19:59;;;;;;;8.70;3.30;;;;;;;29.72;58.35;98042.59;4889831;29;20059;-62
2022/05/24 07:22:42;;;;;;;11.93;3.70;;;;;;;29.87;57.85;98038.09;4889610;29;20056;-62
2022/05/24 07:25:31;;;;;;;9.57;3.97;;;;;;;29.94;58.31;98030.25;4889637;29;20116;-61
2022/05/24 07:28:20;;;;;;;13.43;4.30;;;;;;;29.54;61.48;98021.69;4889179;29;20512;-62
2022/05/24 07:31:09;;;;;;;8.52;3.15;;;;;;;30.01;61.51;98026.66;4889491;29;20076;-61
2022/05/24 07:33:45;;;;;;;11.90;4.32;;;;;;;29.57;61.15;98028.47;4888911;29;20087;-61
2022/05/24 07:36:34;;;;;;;13.73;3.38;;;;;;;29.48;60.56;98021.59;4889542;29;20052;-62
2022/05/24 07:39:17;;;;;;;11.32;3.80;;;;;;;29.72;60.04;98023.16;4887580;29;20464;-62
2022/05/24 07:48:27;;;;;;;7.00;3.33;;;;;;;29.68;58.17;98020.06;4889254;29;20393;-61
2022/05/24 07:51:09;;;;;;;13.50;3.53;;;;;;;29.42;58.48;98007.22;4890101;29;20373;-61
2022/05/24 07:53:59;;;;;;;15.60;5.03;;;;;;;29.49;61.15;98028.56;4890374;29;20132;-62
2022/05/24 07:56:44;;;;;;;9.90;4.27;;;;;;;29.54;60.91;98020.88;4889720;29;20362;-61
2022/05/24 07:59:34;;;;;;;13.40;3.22;;;;;;;29.36;60.29;98017.75;4889819;29;20059;-62
2022/05/24 08:02:21;;;;;;;8.45;3.42;;;;;;;29.27;62.82;98015.16;4873168;29;20044;-62
2022/05/24 08:05:12;;;;;;;10.80;3.47;;;;;;;29.51;60.97;98015.94;4890361;29;20045;-62
2022/05/24 08:07:54;;;;;;;9.45;3.45;;;;;;;29.33;62.40;98013.59;4890426;29;20481;-61
2022/05/24 08:10:45;;;;;;;7.47;3.30;;;;;;;28.89;64.16;98024.13;4889952;29;20115;-62
2022/05/24 08:13:27;;;;;;;12.38;3.42;;;;;;;29.46;59.39;98013.81;4906800;29;20052;-62
2022/05/24 08:16:16;;;;;;;8.73;3.42;;;;;;;29.09;61.18;98017.28;4908357;29;20040;-61
2022/05/24 08:18:58;;;;;;;10.30;3.25;;;;;;;29.22;60.34;98000.75;4886545;29;20412;-61
2022/05/24 08:21:47;;;;;;;11.65;3.28;;;;;;;29.72;60.66;98001.91;4888396;29;20057;-62
2022/05/24 08:24:29;;;;;;;9.20;2.95;;;;;;;29.64;57.54;98008.16;4888222;29;20044;-61
2022/05/24 08:27:18;;;;;;;9.82;2.92;;;;;;;29.56;58.44;98008.25;4887809;29;20112;-61
2022/05/24 08:30:01;;;;;;;9.10;3.25;;;;;;;29.52;56.80;98001.66;4888868;29;20059;-61
2022/05/24 08:32:52;;;;;;;12.52;3.20;;;;;;;29.56;57.61;97997.63;4889328;29;20111;-61
2022/05/24 08:35:36;;;;;;;12.75;3.20;;;;;;;29.43;56.76;98000.91;4888902;29;20049;-61
2022/05/24 08:38:26;;;;;;;10.30;3.35;;;;;;;29.31;55.88;98003.16;4889621;29;20057;-65
2022/05/24 08:42:03;;;;;;;8.75;2.83;;;;;;;29.08;58.90;98005.03;4881992;29;20612;-63
2022/05/24 08:51:24;;;;;;;8.50;3.17;;;;;;;29.29;59.53;97991.88;4884901;29;20059;-64
2022/05/24 08:54:28;;;;;;;9.45;3.00;;;;;;;29.60;56.67;97986.47;4873609;29;20083;-63
2022/05/24 08:57:08;;;;;;;8.30;2.42;;;;;;;29.68;57.86;97985.56;4872701;29;20065;-64
2022/05/24 09:00:05;;;;;;;5.95;2.22;;;;;;;29.98;55.48;97987.19;4887311;29;20063;-62
2022/05/24 09:02:55;;;;;;;15.60;2.63;;;;;;;29.87;56.56;97984.97;4885480;29;20151;-63
2022/05/24 09:05:48;;;;;;;9.73;2.13;;;;;;;29.25;55.94;97965.91;4879985;29;20065;-62
2022/05/24 09:08:56;;;;;;;8.35;2.67;;;;;;;29.33;57.27;97980.91;4883008;29;20852;-62
2022/05/24 09:11:50;;;;;;;10.00;2.50;;;;;;;29.17;58.41;97964.16;4886637;29;20048;-63
2022/05/24 09:14:54;;;;;;;9.95;3.53;;;;;;;29.39;57.93;97977.56;4887008;29;20116;-62
2022/05/24 09:17:36;;;;;;;11.10;2.67;;;;;;;28.88;57.29;97972.88;4887703;29;20238;-61
2022/05/24 09:20:31;;;;;;;5.43;2.78;;;;;;;28.93;56.67;97964.38;4886302;29;20216;-61
2022/05/24 09:23:57;;;;;;;11.88;2.28;;;;;;;28.96;57.88;97956.06;4875744;29;20132;-61
2022/05/24 09:26:34;;;;;;;7.70;2.40;;;;;;;29.07;54.20;97966.22;4871814;29;20053;-61
2022/05/24 09:29:31;;;;;;;9.20;2.25;;;;;;;28.92;53.84;97954.78;4888272;29;20056;-61
2022/05/24 09:32:10;;;;;;;7.82;2.40;;;;;;;28.91;55.65;97950.47;4882366;29;20049;-63
2022/05/24 09:35:12;;;;;;;8.88;2.53;;;;;;;29.06;56.89;97948.66;4882922;29;20049;-61
2022/05/24 09:38:24;;;;;;;15.05;3.20;;;;;;;29.22;58.37;97953.81;4884305;29;20044;-62
2022/05/24 09:41:28;;;;;;;7.63;2.55;;;;;;;28.90;57.13;97959.44;4879125;29;20136;-62
2022/05/24 09:44:25;;;;;;;7.07;2.78;;;;;;;29.19;58.59;97958.69;4883070;29;20052;-62
2022/05/24 09:47:46;;;;;;;7.43;2.00;;;;;;;29.09;53.17;97964.22;4884867;29;20422;-62
2022/05/24 09:50:49;;;;;;;14.48;2.95;;;;;;;29.15;54.39;97954.72;4883438;29;20049;-61
2022/05/24 09:53:39;;;;;;;7.15;2.22;;;;;;;29.41;54.15;97949.00;4884158;29;20070;-62
2022/05/24 09:56:29;;;;;;;9.70;2.50;;;;;;;29.51;51.55;97952.22;4885934;29;20055;-62
2022/05/24 09:59:29;;;;;;;3.92;2.15;;;;;;;29.63;51.57;97942.78;4883166;29;20061;-61
2022/05/24 10:02:39;;;;;;;5.50;2.33;;;;;;;29.69;51.62;97945.50;4884304;29;20044;-62
2022/05/24 10:05:31;;;;;;;7.43;2.05;;;;;;;29.81;52.52;97940.56;4883341;29;20079;-61
2022/05/24 10:08:15;;;;;;;14.88;3.38;;;;;;;29.69;54.31;97942.06;4882886;29;20044;-63
2022/05/24 10:11:04;;;;;;;8.30;2.33;;;;;;;29.26;52.60;97931.22;4883450;29;20411;-62
2022/05/24 10:13:50;;;;;;;7.93;2.83;;;;;;;29.46;52.31;97943.97;4868186;29;20398;-62
2022/05/24 10:17:12;;;;;;;7.57;2.60;;;;;;;29.46;52.88;97943.97;4876583;29;20057;-62
2022/05/24 10:20:37;;;;;;;9.48;2.58;;;;;;;29.41;53.20;97943.69;4889182;29;20057;-62
2022/05/24 10:23:44;;;;;;;6.68;2.40;;;;;;;29.29;52.18;97932.69;4888012;29;20052;-62
2022/05/24 10:27:01;;;;;;;8.00;2.63;;;;;;;29.15;53.04;97942.28;4889624;29;20052;-62
2022/05/24 10:30:08;;;;;;;7.00;2.20;;;;;;;29.40;52.25;97942.88;4890099;29;20172;-61
2022/05/24 10:39:36;;;;;;;8.38;2.33;;;;;;;29.36;53.05;97931.00;4895313;29;20072;-62
2022/05/24 10:42:44;;;;;;;8.95;2.47;;;;;;;29.40;50.41;97944.69;4887277;29;20084;-60
2022/05/24 10:45:50;;;;;;;11.40;2.60;;;;;;;29.36;52.03;97932.81;4892013;29;20076;-60
2022/05/24 10:48:52;;;;;;;11.23;2.83;;;;;;;29.26;52.57;97931.22;4892803;29;20176;-63
2022/05/24 10:52:00;;;;;;;12.18;2.60;;;;;;;29.49;53.05;97933.00;4891569;29;20063;-61
2022/05/24 10:54:56;;;;;;;9.35;2.38;;;;;;;29.49;54.44;97927.69;4889519;29;20613;-61
2022/05/24 10:58:09;;;;;;;5.90;2.47;;;;;;;29.51;53.03;97923.03;4885682;29;20052;-61
2022/05/24 11:00:50;;;;;;;5.82;2.45;;;;;;;29.55;51.52;97925.09;4888416;29;20056;-60
2022/05/24 11:03:47;;;;;;;7.85;2.38;;;;;;;29.61;53.11;97915.59;4886470;29;20492;-61
2022/05/24 11:06:43;;;;;;;8.07;2.47;;;;;;;29.55;51.79;97924.28;4888592;29;20128;-61
2022/05/24 11:09:44;;;;;;;5.93;2.53;;;;;;;29.52;52.96;97922.00;4879451;29;20112;-60
2022/05/24 11:12:25;;;;;;;6.68;2.60;;;;;;;29.52;53.82;97920.19;4877777;29;20071;-61
2022/05/24 11:15:32;;;;;;;8.93;3.08;;;;;;;29.65;52.10;97916.88;4884743;29;20438;-61
2022/05/24 11:18:27;;;;;;;8.73;3.10;;;;;;;29.76;51.16;97921.72;4881265;29;20140;-61
2022/05/24 11:21:15;;;;;;;4.72;2.53;;;;;;;29.52;52.05;97922.00;4872884;29;20053;-60
2022/05/24 11:24:19;;;;;;;7.85;2.88;;;;;;;29.42;53.09;97921.47;4884193;29;20048;-61
2022/05/24 11:27:02;;;;;;;8.25;2.40;;;;;;;29.38;52.02;97910.38;4886444;29;20130;-61
2022/05/24 11:30:03;;;;;;;8.05;2.70;;;;;;;29.24;53.86;97901.38;4882219;29;20072;-61
2022/05/24 11:33:12;;;;;;;6.95;3.03;;;;;;;29.16;54.39;97909.44;4883933;29;20132;-61
2022/05/24 11:35:53;;;;;;;10.65;2.30;;;;;;;29.16;50.46;97909.44;4887869;29;20048;-63
2022/05/24 11:38:44;;;;;;;6.70;2.70;;;;;;;29.17;51.74;97900.47;4882784;29;20068;-61
2022/05/24 11:41:35;;;;;;;7.57;2.17;;;;;;;29.29;51.13;97909.59;4883423;29;20080;-62
2022/05/24 11:44:40;;;;;;;11.32;3.25;;;;;;;29.34;53.72;97902.94;4886102;29;20068;-61
2022/05/24 11:47:42;;;;;;;9.68;2.97;;;;;;;29.43;51.60;97897.41;4888891;29;20055;-62
2022/05/24 11:50:44;;;;;;;6.43;2.22;;;;;;;29.34;51.70;97908.25;4888722;29;20056;-61
2022/05/24 11:53:47;;;;;;;4.00;2.05;;;;;;;29.27;50.96;97909.00;4890240;29;20060;-61
2022/05/24 11:56:24;;;;;;;11.45;3.50;;;;;;;29.20;52.48;97902.78;4888045;29;20080;-61
2022/05/24 11:59:46;;;;;;;5.72;2.70;;;;;;;29.28;51.26;97900.03;4889242;29;20060;-63
2022/05/24 12:07:53;;;;;;;10.00;2.55;;;;;;;28.98;52.38;97903.66;4889829;29;20052;-61
2022/05/24 12:08:43;;;;;;;5.20;2.65;;;;;;;29.13;55.05;97911.66;4885697;29;20535;-61
2022/05/24 12:11:34;;;;;;;10.50;2.70;;;;;;;28.99;53.41;97907.94;4889020;29;20429;-61
2022/05/24 12:14:43;;;;;;;8.63;2.75;;;;;;;29.16;53.18;97911.25;4889509;29;20131;-61
2022/05/24 12:17:32;;;;;;;12.15;3.65;;;;;;;29.22;54.06;97906.03;4889484;29;20068;-61
2022/05/24 12:20:32;;;;;;;9.27;3.67;;;;;;;29.24;53.29;97904.03;4888779;29;20060;-62
2022/05/24 12:23:37;;;;;;;11.13;3.17;;;;;;;29.01;54.38;97908.59;4887298;29;20409;-62
2022/05/24 12:26:15;;;;;;;12.70;3.63;;;;;;;29.09;54.74;97905.88;4887855;29;20052;-61
2022/05/24 12:29:13;;;;;;;12.23;2.97;;;;;;;29.14;51.07;97910.63;4889323;29;20072;-61
2022/05/24 12:32:12;;;;;;;7.93;3.10;;;;;;;29.13;51.43;97917.78;4886453;29;20068;-62
2022/05/24 12:35:21;;;;;;;11.90;2.65;;;;;;;29.12;51.24;97920.59;4885107;29;20044;-61
2022/05/24 12:38:17;;;;;;;7.00;2.60;;;;;;;29.07;51.32;97918.47;4888661;29;20053;-61
2022/05/24 12:41:32;;;;;;;15.73;3.15;;;;;;;29.01;52.09;97929.81;4887879;29;20131;-61
2022/05/24 12:44:21;;;;;;;10.88;3.17;;;;;;;28.97;53.52;97923.25;4892026;29;20049;-61
2022/05/24 12:47:16;;;;;;;11.93;2.90;;;;;;;28.89;52.94;97923.31;4887453;29;20061;-62
2022/05/24 12:50:12;;;;;;;7.22;3.30;;;;;;;28.93;52.90;97935.22;4889178;29;20501;-61
2022/05/24 12:52:47;;;;;;;8.88;2.70;;;;;;;28.91;52.47;97926.59;4891415;29;20384;-62
2022/05/24 12:55:57;;;;;;;8.05;2.53;;;;;;;28.78;51.84;97926.41;4892247;29;20057;-61
2022/05/24 12:58:41;;;;;;;17.87;2.93;;;;;;;28.80;55.03;97938.47;4884936;29;20049;-61
2022/05/24 13:01:31;;;;;;;11.02;2.88;;;;;;;28.77;55.35;97940.66;4883581;29;20045;-62
2022/05/24 13:04:27;;;;;;;6.70;2.92;;;;;;;28.60;55.89;97941.75;4888246;29;20128;-61
2022/05/24 13:07:39;;;;;;;8.70;3.08;;;;;;;28.54;57.23;97933.53;4890180;29;20472;-62
2022/05/24 13:10:32;;;;;;;11.25;3.72;;;;;;;28.54;56.76;97943.31;4895142;29;20044;-60
2022/05/24 13:13:23;;;;;;;14.18;5.22;;;;;;;28.51;57.38;97944.47;4890073;29;20076;-62
2022/05/24 13:16:13;;;;;;;15.50;4.05;;;;;;;28.48;57.68;97962.56;4857836;29;20113;-61
2022/05/24 13:19:03;;;;;;;8.27;2.72;;;;;;;28.44;56.06;97948.00;4870183;29;20140;-62
2022/05/24 13:21:46;;;;;;;8.98;3.90;;;;;;;28.46;56.84;97952.13;4868711;29;20452;-61
2022/05/24 13:24:49;;;;;;;8.68;3.05;;;;;;;28.36;58.44;97956.84;4868064;29;20063;-62
2022/05/24 13:27:33;;;;;;;5.28;2.30;;;;;;;28.38;57.01;97954.84;4864567;29;20053;-61
2022/05/24 13:33:44;;;;;;;13.50;3.28;;;;;;;28.27;57.04;97959.72;4863027;29;20141;-62
2022/05/24 13:36:34;;;;;;;15.60;3.97;;;;;;;28.22;56.77;97970.84;4871990;29;20057;-61
2022/05/24 13:39:27;;;;;;;9.63;3.10;;;;;;;28.19;56.01;97971.19;4863416;29;20145;-61
2022/05/24 13:42:18;;;;;;;11.38;2.97;;;;;;;28.18;57.41;97975.66;4863632;29;20057;-61
2022/05/24 13:45:22;;;;;;;8.77;2.85;;;;;;;28.18;56.44;97980.97;4868027;29;20117;-61
2022/05/24 13:48:33;;;;;;;11.10;4.07;;;;;;;28.15;59.13;97985.75;4852499;29;20065;-61
2022/05/24 13:51:40;;;;;;;10.70;3.67;;;;;;;28.14;56.37;97990.22;4855471;29;20057;-62
2022/05/24 13:54:41;;;;;;;19.23;4.80;;;;;;;28.08;58.60;97995.41;4862777;29;20403;-61
2022/05/24 13:57:30;;;;;;;13.63;5.05;;;;;;;28.03;58.05;97992.44;4861760;29;20134;-62
2022/05/24 14:00:19;;;;;;;14.85;4.63;;;;;;;27.96;58.04;97991.47;4866134;29;20132;-61
2022/05/24 14:03:21;;;;;;;10.40;3.33;;;;;;;28.00;58.14;97993.63;4863684;29;20486;-60
2022/05/24 14:06:21;;;;;;;10.73;3.17;;;;;;;27.95;58.45;97995.13;4866101;29;20052;-61